createdAt,value
2022-12-01T00:01:21.211Z,0.79
2022-12-01T00:03:49.175Z,0.78
2022-12-01T00:06:19.069Z,0.79
2022-12-01T00:09:03.754Z,0.78
2022-12-01T00:11:31.807Z,0.78
2022-12-01T00:13:59.775Z,0.78
2022-12-01T00:16:27.591Z,0.76
2022-12-01T00:18:56.231Z,0.77
2022-12-01T00:21:25.772Z,0.77
2022-12-01T00:23:57.974Z,0.77
2022-12-01T00:26:27.808Z,0.78
2022-12-01T00:28:57.488Z,0.79
2022-12-01T00:31:25.442Z,0.76
2022-12-01T00:33:53.355Z,0.74
2022-12-01T00:36:22.142Z,0.74
2022-12-01T00:38:54.907Z,0.76
2022-12-01T00:41:24.116Z,0.73
2022-12-01T00:43:52.521Z,0.74
2022-12-01T00:46:21.130Z,0.72
2022-12-01T00:48:50.105Z,0.73
2022-12-01T00:51:17.896Z,0.72
2022-12-01T00:53:45.994Z,0.72
2022-12-01T00:56:15.332Z,0.72
2022-12-01T00:58:43.154Z,0.70
2022-12-01T01:01:11.058Z,0.72
2022-12-01T01:03:38.947Z,0.70
2022-12-01T01:06:08.036Z,0.71
2022-12-01T01:08:36.479Z,0.70
2022-12-01T01:11:05.417Z,0.69
2022-12-01T01:13:35.087Z,0.69
2022-12-01T01:16:05.271Z,0.68
2022-12-01T01:18:33.916Z,0.68
2022-12-01T01:21:04.550Z,0.68
2022-12-01T01:23:32.333Z,0.67
2022-12-01T01:26:03.048Z,0.67
2022-12-01T01:28:33.695Z,0.66
2022-12-01T01:31:06.274Z,0.65
2022-12-01T01:33:34.090Z,0.65
2022-12-01T01:36:02.471Z,0.65
2022-12-01T01:38:31.127Z,0.66
2022-12-01T01:40:59.130Z,0.65
2022-12-01T01:43:45.634Z,0.65
2022-12-01T01:46:16.983Z,0.64
2022-12-01T01:48:48.227Z,0.65
2022-12-01T01:51:18.600Z,0.64
2022-12-01T01:53:47.532Z,0.65
2022-12-01T01:56:15.395Z,0.64
2022-12-01T01:58:43.482Z,0.64
2022-12-01T02:01:12.078Z,0.64
2022-12-01T02:03:42.609Z,0.63
2022-12-01T02:06:12.516Z,0.62
2022-12-01T02:08:40.991Z,0.63
2022-12-01T02:11:34.466Z,0.64
2022-12-01T02:14:10.873Z,0.64
2022-12-01T02:16:45.449Z,0.62
2022-12-01T02:19:37.689Z,0.63
2022-12-01T02:22:18.605Z,0.63
2022-12-01T02:25:08.760Z,0.62
2022-12-01T02:27:57.769Z,0.61
2022-12-01T02:30:37.792Z,0.63
2022-12-01T02:33:12.293Z,0.62
2022-12-01T02:35:47.659Z,0.63
2022-12-01T02:38:22.995Z,0.62
2022-12-01T02:40:57.235Z,0.62
2022-12-01T02:43:30.950Z,0.63
2022-12-01T02:46:05.592Z,0.64
2022-12-01T02:48:36.535Z,0.64
2022-12-01T02:51:08.780Z,0.64
2022-12-01T02:53:36.789Z,0.64
2022-12-01T02:56:10.655Z,0.64
2022-12-01T02:58:38.428Z,0.66
2022-12-01T03:01:24.959Z,0.64
2022-12-01T03:04:03.681Z,0.65
2022-12-01T03:06:45.085Z,0.65
2022-12-01T03:09:21.828Z,0.68
2022-12-01T03:11:57.763Z,0.66
2022-12-01T03:14:34.319Z,0.67
2022-12-01T03:17:08.801Z,0.67
2022-12-01T03:19:42.867Z,0.67
2022-12-01T03:22:14.934Z,0.66
2022-12-01T03:24:47.544Z,0.68
2022-12-01T03:27:19.673Z,0.68
2022-12-01T03:29:51.774Z,0.68
2022-12-01T03:32:25.880Z,0.69
2022-12-01T03:34:58.363Z,0.68
2022-12-01T03:37:31.711Z,0.67
2022-12-01T03:40:01.529Z,0.68
2022-12-01T03:42:36.839Z,0.69
2022-12-01T03:45:08.545Z,0.68
2022-12-01T03:47:39.517Z,0.68
2022-12-01T03:50:13.945Z,0.68
2022-12-01T03:52:49.501Z,0.68
2022-12-01T03:55:24.019Z,0.67
2022-12-01T03:57:57.448Z,0.66
2022-12-01T04:00:25.804Z,0.66
2022-12-01T04:02:57.837Z,0.66
2022-12-01T04:05:26.819Z,0.65
2022-12-01T04:07:54.931Z,0.63
2022-12-01T04:10:22.976Z,0.62
2022-12-01T04:12:49.719Z,0.62
2022-12-01T04:15:17.955Z,0.63
2022-12-01T04:17:45.884Z,0.62
2022-12-01T04:20:17.689Z,0.63
2022-12-01T04:22:45.544Z,0.62
2022-12-01T04:25:13.427Z,0.61
2022-12-01T04:27:41.158Z,0.60
2022-12-01T04:30:09.977Z,0.60
2022-12-01T04:32:39.769Z,0.60
2022-12-01T04:35:08.553Z,0.60
2022-12-01T04:37:37.915Z,0.60
2022-12-01T04:40:07.291Z,0.60
2022-12-01T04:42:35.078Z,0.61
2022-12-01T04:45:02.819Z,0.60
2022-12-01T04:47:30.628Z,0.59
2022-12-01T04:49:58.349Z,0.58
2022-12-01T04:52:27.464Z,0.59
2022-12-01T04:54:59.758Z,0.58
2022-12-01T04:57:27.533Z,0.59
2022-12-01T04:59:55.290Z,0.59
2022-12-01T05:02:23.094Z,0.58
2022-12-01T05:04:50.852Z,0.59
2022-12-01T05:07:18.905Z,0.60
2022-12-01T05:09:46.974Z,0.59
2022-12-01T05:12:17.227Z,0.59
2022-12-01T05:14:45.032Z,0.60
2022-12-01T05:17:14.583Z,0.58
2022-12-01T05:19:59.900Z,0.59
2022-12-01T05:23:03.210Z,0.59
2022-12-01T05:25:15.352Z,0.60
2022-12-01T05:27:44.449Z,0.60
2022-12-01T05:30:13.037Z,0.60
2022-12-01T05:32:40.743Z,0.60
2022-12-01T05:35:09.592Z,0.61
2022-12-01T05:37:37.323Z,0.60
2022-12-01T05:40:06.420Z,0.60
2022-12-01T05:42:34.505Z,0.60
2022-12-01T05:45:03.764Z,0.59
2022-12-01T05:47:31.503Z,0.59
2022-12-01T05:50:04.962Z,0.58
2022-12-01T05:52:34.376Z,0.57
2022-12-01T05:55:02.294Z,0.58
2022-12-01T05:57:30.160Z,0.57
2022-12-01T05:59:57.918Z,0.57
2022-12-01T06:02:27.709Z,0.58
2022-12-01T06:04:55.482Z,0.56
2022-12-01T06:07:25.544Z,0.56
2022-12-01T06:09:53.921Z,0.55
2022-12-01T06:12:21.701Z,0.55
2022-12-01T06:14:49.424Z,0.54
2022-12-01T06:17:17.137Z,0.54
2022-12-01T06:19:48.219Z,0.57
2022-12-01T06:22:16.155Z,0.55
2022-12-01T06:24:43.900Z,0.55
2022-12-01T06:27:11.626Z,0.57
2022-12-01T06:29:42.188Z,0.57
2022-12-01T06:32:10.627Z,0.58
2022-12-01T06:34:38.406Z,0.58
2022-12-01T06:37:07.509Z,0.58
2022-12-01T06:39:35.514Z,0.58
2022-12-01T06:42:03.246Z,0.58
2022-12-01T06:44:31.011Z,0.57
2022-12-01T06:46:58.707Z,0.58
2022-12-01T06:49:26.479Z,0.56
2022-12-01T06:51:54.213Z,0.58
2022-12-01T06:54:23.345Z,0.58
2022-12-01T06:56:51.219Z,0.58
2022-12-01T06:59:19.807Z,0.59
2022-12-01T07:01:47.639Z,0.59
2022-12-01T07:04:15.436Z,0.59
2022-12-01T07:06:46.491Z,0.54
2022-12-01T07:09:14.287Z,0.60
2022-12-01T07:11:43.441Z,0.59
2022-12-01T07:14:20.915Z,0.55
2022-12-01T07:16:51.809Z,0.56
2022-12-01T07:19:19.759Z,0.56
2022-12-01T07:21:47.605Z,0.55
2022-12-01T07:24:15.899Z,0.54
2022-12-01T07:26:45.328Z,0.54
2022-12-01T07:29:13.299Z,0.54
2022-12-01T07:31:41.348Z,0.54
2022-12-01T07:34:13.433Z,0.54
2022-12-01T07:36:41.246Z,0.55
2022-12-01T07:39:09.920Z,0.55
2022-12-01T07:41:37.672Z,0.55
2022-12-01T07:44:06.858Z,0.56
2022-12-01T07:46:34.712Z,0.55
2022-12-01T07:49:02.675Z,0.55
2022-12-01T07:51:30.412Z,0.55
2022-12-01T07:54:02.253Z,0.55
2022-12-01T07:56:30.161Z,0.54
2022-12-01T07:58:57.902Z,0.55
2022-12-01T08:01:27.383Z,0.54
2022-12-01T08:03:56.584Z,0.55
2022-12-01T08:06:26.132Z,0.55
2022-12-01T08:08:54.297Z,0.55
2022-12-01T08:11:24.076Z,0.56
2022-12-01T08:13:52.982Z,0.55
2022-12-01T08:16:22.732Z,0.55
2022-12-01T08:18:52.126Z,0.57
2022-12-01T08:21:21.860Z,0.59
2022-12-01T08:23:53.301Z,0.59
2022-12-01T08:26:21.772Z,0.61
2022-12-01T08:28:50.307Z,0.62
2022-12-01T08:31:20.990Z,0.62
2022-12-01T08:33:51.622Z,0.63
2022-12-01T08:36:20.535Z,0.63
2022-12-01T08:38:50.095Z,0.64
2022-12-01T08:41:18.649Z,0.64
2022-12-01T08:43:58.109Z,0.65
2022-12-01T08:46:26.739Z,0.67
2022-12-01T08:48:57.868Z,0.69
2022-12-01T08:51:26.786Z,0.69
2022-12-01T08:53:56.521Z,0.68
2022-12-01T08:56:27.285Z,0.70
2022-12-01T08:58:55.701Z,0.71
2022-12-01T09:01:25.562Z,0.70
2022-12-01T09:04:05.675Z,0.72
2022-12-01T09:06:39.412Z,0.72
2022-12-01T09:09:07.747Z,0.73
2022-12-01T09:11:35.520Z,0.74
2022-12-01T09:14:03.334Z,0.75
2022-12-01T09:16:31.189Z,0.77
2022-12-01T09:18:59.121Z,0.81
2022-12-01T09:21:30.348Z,0.81
2022-12-01T09:24:00.177Z,0.84
2022-12-01T09:26:28.819Z,0.86
2022-12-01T09:28:59.253Z,0.88
2022-12-01T09:31:27.161Z,0.90
2022-12-01T09:33:56.577Z,0.91
2022-12-01T09:36:24.501Z,0.93
2022-12-01T09:38:52.577Z,0.96
2022-12-01T09:41:25.128Z,0.97
2022-12-01T09:43:58.785Z,0.99
2022-12-01T09:46:31.684Z,1.02
2022-12-01T09:49:01.353Z,1.04
2022-12-01T09:51:34.782Z,1.07
2022-12-01T09:54:04.078Z,1.08
2022-12-01T09:56:40.737Z,1.10
2022-12-01T09:59:14.542Z,1.12
2022-12-01T10:01:45.470Z,1.11
2022-12-01T10:04:17.752Z,1.13
2022-12-01T10:06:51.610Z,1.14
2022-12-01T10:09:24.493Z,1.14
2022-12-01T10:12:00.249Z,1.12
2022-12-01T10:14:30.881Z,1.12
2022-12-01T10:17:08.751Z,1.14
2022-12-01T10:19:43.306Z,1.15
2022-12-01T10:22:29.342Z,1.15
2022-12-01T10:25:03.953Z,1.15
2022-12-01T10:27:43.910Z,1.15
2022-12-01T10:30:16.895Z,1.16
2022-12-01T10:32:52.956Z,1.17
2022-12-01T10:35:24.414Z,1.18
2022-12-01T10:37:57.175Z,1.19
2022-12-01T10:40:26.020Z,1.21
2022-12-01T10:42:55.809Z,1.21
2022-12-01T10:45:25.668Z,1.23
2022-12-01T10:48:13.056Z,1.24
2022-12-01T10:50:41.043Z,1.26
2022-12-01T10:53:26.877Z,1.29
2022-12-01T10:56:05.444Z,1.30
2022-12-01T10:58:41.028Z,1.32
2022-12-01T11:01:18.609Z,1.34
2022-12-01T11:03:52.597Z,1.36
2022-12-01T11:06:26.966Z,1.38
2022-12-01T11:08:58.403Z,1.40
2022-12-01T11:11:30.091Z,1.41
2022-12-01T11:14:01.646Z,1.41
2022-12-01T11:16:43.411Z,1.40
2022-12-01T11:19:27.132Z,1.39
2022-12-01T11:21:57.104Z,1.39
2022-12-01T11:24:40.337Z,1.39
2022-12-01T11:27:15.847Z,1.39
2022-12-01T11:29:46.943Z,1.40
2022-12-01T11:32:22.399Z,1.40
2022-12-01T11:34:53.734Z,1.39
2022-12-01T11:37:24.191Z,1.38
2022-12-01T11:39:53.266Z,1.37
2022-12-01T11:42:25.962Z,1.37
2022-12-01T11:44:58.067Z,1.35
2022-12-01T11:47:27.877Z,1.34
2022-12-01T11:49:57.586Z,1.34
2022-12-01T11:52:29.061Z,1.35
2022-12-01T11:54:59.576Z,1.33
2022-12-01T11:57:34.624Z,1.34
2022-12-01T12:00:13.362Z,1.34
2022-12-01T12:02:47.756Z,1.32
2022-12-01T12:05:39.441Z,1.32
2022-12-01T12:08:14.605Z,1.34
2022-12-01T12:10:49.342Z,1.33
2022-12-01T12:13:46.071Z,1.33
2022-12-01T12:16:26.285Z,1.31
2022-12-01T12:19:12.004Z,1.32
2022-12-01T12:21:46.290Z,1.30
2022-12-01T12:24:38.023Z,1.29
2022-12-01T12:27:15.766Z,1.28
2022-12-01T12:30:05.256Z,1.29
2022-12-01T12:32:48.556Z,1.27
2022-12-01T12:35:30.609Z,1.29
2022-12-01T12:38:08.652Z,1.28
2022-12-01T12:40:43.531Z,1.25
2022-12-01T12:43:23.548Z,1.25
2022-12-01T12:46:02.904Z,1.25
2022-12-01T12:49:12.050Z,1.24
2022-12-01T12:51:43.832Z,1.23
2022-12-01T12:54:21.683Z,1.21
2022-12-01T12:56:55.238Z,1.20
2022-12-01T12:59:29.303Z,1.21
2022-12-01T13:02:04.965Z,1.20
2022-12-01T13:04:41.640Z,1.20
2022-12-01T13:07:26.533Z,1.21
2022-12-01T13:10:00.814Z,1.23
2022-12-01T13:12:31.062Z,1.23
2022-12-01T13:15:02.959Z,1.23
2022-12-01T13:17:36.956Z,1.24
2022-12-01T13:20:07.545Z,1.23
2022-12-01T13:22:36.848Z,1.21
2022-12-01T13:25:05.482Z,1.21
2022-12-01T13:27:37.033Z,1.18
2022-12-01T13:30:05.685Z,1.21
2022-12-01T13:32:36.400Z,1.20
2022-12-01T13:35:09.008Z,1.18
2022-12-01T13:37:38.863Z,1.17
2022-12-01T13:40:17.982Z,1.17
2022-12-01T13:42:58.389Z,1.18
2022-12-01T13:45:26.343Z,1.17
2022-12-01T13:47:55.924Z,1.16
2022-12-01T13:51:00.359Z,1.15
2022-12-01T13:53:36.397Z,1.13
2022-12-01T13:56:39.689Z,1.11
2022-12-01T13:59:42.869Z,1.09
2022-12-01T14:02:20.561Z,1.05
2022-12-01T14:04:49.123Z,1.04
2022-12-01T14:07:39.738Z,1.03
2022-12-01T14:10:30.099Z,1.02
2022-12-01T14:13:04.025Z,0.98
2022-12-01T14:15:35.828Z,0.98
2022-12-01T14:18:17.842Z,0.95
2022-12-01T14:20:47.459Z,0.94
2022-12-01T14:23:25.035Z,0.92
2022-12-01T14:26:13.083Z,0.90
2022-12-01T14:29:20.842Z,0.88
2022-12-01T14:32:21.309Z,0.86
2022-12-01T14:34:56.124Z,0.85
2022-12-01T14:37:28.303Z,0.84
2022-12-01T14:40:04.079Z,0.80
2022-12-01T14:42:53.771Z,0.77
2022-12-01T14:45:25.309Z,0.74
2022-12-01T14:48:00.711Z,0.70
2022-12-01T14:50:36.094Z,0.68
2022-12-01T14:53:14.746Z,0.68
2022-12-01T14:55:48.853Z,0.67
2022-12-01T14:58:21.207Z,0.65
2022-12-01T15:00:58.911Z,0.64
2022-12-01T15:03:32.875Z,0.63
2022-12-01T15:06:00.640Z,0.64
2022-12-01T15:09:04.227Z,0.61
2022-12-01T15:11:27.142Z,0.61
2022-12-01T15:13:56.033Z,0.60
2022-12-01T15:16:25.600Z,0.60
2022-12-01T15:18:53.754Z,0.59
2022-12-01T15:21:23.965Z,0.59
2022-12-01T15:24:00.148Z,0.57
2022-12-01T15:26:31.737Z,0.56
2022-12-01T15:29:14.136Z,0.58
2022-12-01T15:31:44.703Z,0.57
2022-12-01T15:34:16.677Z,0.56
2022-12-01T15:36:45.137Z,0.55
2022-12-01T15:39:16.383Z,0.54
2022-12-01T15:41:48.480Z,0.52
2022-12-01T15:44:22.681Z,0.53
2022-12-01T15:46:50.515Z,0.52
2022-12-01T15:49:20.803Z,0.51
2022-12-01T15:51:50.175Z,0.50
2022-12-01T15:54:21.583Z,0.49
2022-12-01T15:56:55.473Z,0.50
2022-12-01T15:59:31.133Z,0.48
2022-12-01T16:01:59.506Z,0.46
2022-12-01T16:04:32.180Z,0.46
2022-12-01T16:07:02.722Z,0.45
2022-12-01T16:09:35.206Z,0.46
2022-12-01T16:12:21.930Z,0.43
2022-12-01T16:14:52.822Z,0.43
2022-12-01T16:17:20.696Z,0.40
2022-12-01T16:19:48.443Z,0.40
2022-12-01T16:22:21.668Z,0.40
2022-12-01T16:24:52.046Z,0.40
2022-12-01T16:27:24.040Z,0.39
2022-12-01T16:29:54.151Z,0.39
2022-12-01T16:32:24.643Z,0.39
2022-12-01T16:34:54.213Z,0.39
2022-12-01T16:37:23.334Z,0.39
2022-12-01T16:39:51.345Z,0.36
2022-12-01T16:42:21.581Z,0.36
2022-12-01T16:44:51.806Z,0.35
2022-12-01T16:47:21.557Z,0.32
2022-12-01T16:49:49.890Z,0.31
2022-12-01T16:55:14.056Z,0.27
2022-12-01T16:57:41.735Z,0.24
2022-12-01T17:00:12.233Z,0.24
2022-12-01T17:02:39.987Z,0.23
2022-12-01T17:05:08.383Z,0.22
2022-12-01T17:07:36.301Z,0.21
2022-12-01T17:10:04.413Z,0.19
2022-12-01T17:12:32.153Z,0.17
2022-12-01T17:14:59.913Z,0.16
2022-12-01T17:17:29.403Z,0.14
2022-12-01T17:19:57.398Z,0.13
2022-12-01T17:22:25.218Z,0.11
2022-12-01T17:24:54.682Z,0.10
2022-12-01T17:27:22.532Z,0.07
2022-12-01T17:29:50.304Z,0.07
2022-12-01T17:32:18.260Z,0.05
2022-12-01T17:34:47.785Z,0.03
2022-12-01T17:37:20.751Z,0.02
2022-12-01T17:39:49.154Z,0.01
2022-12-01T17:42:17.253Z,-0.01
2022-12-01T17:44:45.219Z,-0.02
2022-12-01T17:47:12.962Z,-0.03
2022-12-01T17:49:40.896Z,-0.04
2022-12-01T17:52:10.169Z,-0.06
2022-12-01T17:54:38.277Z,-0.05
2022-12-01T17:57:07.295Z,-0.07
2022-12-01T17:59:35.121Z,-0.07
2022-12-01T18:02:03.122Z,-0.07
2022-12-01T18:04:31.381Z,-0.08
2022-12-01T18:06:59.215Z,-0.08
2022-12-01T18:09:28.349Z,-0.08
2022-12-01T18:11:56.734Z,-0.09
2022-12-01T18:14:24.770Z,-0.09
2022-12-01T18:16:53.593Z,-0.11
2022-12-01T18:19:21.974Z,-0.11
2022-12-01T18:21:50.500Z,-0.12
2022-12-01T18:24:18.270Z,-0.12
2022-12-01T18:26:47.361Z,-0.14
2022-12-01T18:29:18.638Z,-0.14
2022-12-01T18:31:47.226Z,-0.15
2022-12-01T18:34:14.999Z,-0.16
2022-12-01T18:36:42.758Z,-0.15
2022-12-01T18:39:12.110Z,-0.16
2022-12-01T18:41:40.162Z,-0.17
2022-12-01T18:44:09.894Z,-0.16
2022-12-01T18:46:37.912Z,-0.17
2022-12-01T18:49:06.771Z,-0.16
2022-12-01T18:51:37.256Z,-0.18
2022-12-01T18:54:06.566Z,-0.18
2022-12-01T18:56:35.452Z,-0.19
2022-12-01T18:59:06.070Z,-0.17
2022-12-01T19:01:37.886Z,-0.18
2022-12-01T19:04:07.276Z,-0.17
2022-12-01T19:06:37.250Z,-0.17
2022-12-01T19:09:09.077Z,-0.18
2022-12-01T19:11:37.817Z,-0.17
2022-12-01T19:14:05.690Z,-0.18
2022-12-01T19:16:34.055Z,-0.17
2022-12-01T19:19:03.201Z,-0.17
2022-12-01T19:21:30.998Z,-0.18
2022-12-01T19:23:59.193Z,-0.18
2022-12-01T19:26:27.266Z,-0.16
2022-12-01T19:28:55.385Z,-0.18
2022-12-01T19:31:24.875Z,-0.19
2022-12-01T19:33:54.068Z,-0.20
2022-12-01T19:36:25.186Z,-0.20
2022-12-01T19:38:53.429Z,-0.19
2022-12-01T19:41:25.037Z,-0.19
2022-12-01T19:43:53.397Z,-0.20
2022-12-01T19:46:23.277Z,-0.20
2022-12-01T19:48:55.244Z,-0.20
2022-12-01T19:51:25.963Z,-0.20
2022-12-01T19:53:54.307Z,-0.20
2022-12-01T19:56:22.419Z,-0.20
2022-12-01T19:58:50.767Z,-0.20
2022-12-01T20:01:19.917Z,-0.21
2022-12-01T20:03:49.356Z,-0.20
2022-12-01T20:06:20.011Z,-0.22
2022-12-01T20:08:50.541Z,-0.22
2022-12-01T20:11:18.765Z,-0.22
2022-12-01T20:13:48.887Z,-0.21
2022-12-01T20:16:18.518Z,-0.21
2022-12-01T20:18:47.207Z,-0.22
2022-12-01T20:21:17.468Z,-0.22
2022-12-01T20:23:47.742Z,-0.22
2022-12-01T20:26:18.782Z,-0.22
2022-12-01T20:28:48.035Z,-0.22
2022-12-01T20:31:17.743Z,-0.24
2022-12-01T20:33:46.042Z,-0.23
2022-12-01T20:36:14.730Z,-0.25
2022-12-01T20:38:42.612Z,-0.24
2022-12-01T20:41:11.999Z,-0.24
2022-12-01T20:43:41.165Z,-0.23
2022-12-01T20:46:09.403Z,-0.23
2022-12-01T20:48:37.313Z,-0.25
2022-12-01T20:51:06.824Z,-0.24
2022-12-01T20:53:34.945Z,-0.26
2022-12-01T20:56:03.825Z,-0.26
2022-12-01T20:58:37.037Z,-0.25
2022-12-01T21:01:10.282Z,-0.26
2022-12-01T21:03:39.788Z,-0.27
2022-12-01T21:06:08.484Z,-0.29
2022-12-01T21:08:37.503Z,-0.28
2022-12-01T21:11:06.961Z,-0.31
2022-12-01T21:13:42.215Z,-0.29
2022-12-01T21:16:27.904Z,-0.31
2022-12-01T21:19:00.216Z,-0.31
2022-12-01T21:21:29.733Z,-0.31
2022-12-01T21:24:12.243Z,-0.31
2022-12-01T21:26:43.080Z,-0.32
2022-12-01T21:29:19.164Z,-0.33
2022-12-01T21:31:51.729Z,-0.34
2022-12-01T21:34:21.733Z,-0.32
2022-12-01T21:36:51.080Z,-0.34
2022-12-01T21:39:21.714Z,-0.33
2022-12-01T21:41:51.070Z,-0.34
2022-12-01T21:44:20.569Z,-0.35
2022-12-01T21:46:53.232Z,-0.34
2022-12-01T21:49:22.782Z,-0.35
2022-12-01T21:51:52.937Z,-0.33
2022-12-01T21:54:22.140Z,-0.34
2022-12-01T21:56:50.679Z,-0.35
2022-12-01T21:59:22.222Z,-0.36
2022-12-01T22:01:54.515Z,-0.36
2022-12-01T22:04:23.987Z,-0.38
2022-12-01T22:06:53.362Z,-0.38
2022-12-01T22:09:25.383Z,-0.39
2022-12-01T22:11:55.553Z,-0.38
2022-12-01T22:14:25.505Z,-0.37
2022-12-01T22:16:58.009Z,-0.36
2022-12-01T22:19:33.907Z,-0.38
2022-12-01T22:22:04.486Z,-0.38
2022-12-01T22:24:40.494Z,-0.38
2022-12-01T22:27:21.442Z,-0.40
2022-12-01T22:29:51.844Z,-0.40
2022-12-01T22:32:48.181Z,-0.39
2022-12-01T22:35:39.886Z,-0.40
2022-12-01T22:38:19.108Z,-0.41
2022-12-01T22:40:56.255Z,-0.40
2022-12-01T22:43:44.363Z,-0.42
2022-12-01T22:46:26.860Z,-0.44
2022-12-01T22:48:58.210Z,-0.44
2022-12-01T22:51:37.982Z,-0.45
2022-12-01T22:54:24.274Z,-0.45
2022-12-01T22:57:00.000Z,-0.46
2022-12-01T22:59:32.554Z,-0.45
2022-12-01T23:02:02.733Z,-0.47
2022-12-01T23:04:35.878Z,-0.46
2022-12-01T23:07:09.406Z,-0.48
2022-12-01T23:09:40.723Z,-0.49
2022-12-01T23:12:29.817Z,-0.47
2022-12-01T23:15:00.073Z,-0.47
2022-12-01T23:17:30.056Z,-0.48
2022-12-01T23:20:23.326Z,-0.47
2022-12-01T23:22:53.855Z,-0.48
2022-12-01T23:25:23.198Z,-0.48
2022-12-01T23:27:53.096Z,-0.47
2022-12-01T23:30:22.540Z,-0.47
2022-12-01T23:33:07.720Z,-0.47
2022-12-01T23:35:41.652Z,-0.48
2022-12-01T23:38:16.787Z,-0.49
2022-12-01T23:40:45.157Z,-0.49
2022-12-01T23:43:19.477Z,-0.49
2022-12-01T23:45:49.179Z,-0.48
2022-12-01T23:48:21.507Z,-0.51
2022-12-01T23:50:53.338Z,-0.51
2022-12-01T23:53:26.722Z,-0.51
2022-12-01T23:55:54.711Z,-0.51
2022-12-01T23:58:22.416Z,-0.53
